CheckWX is a tool to help pilots better visualize weather data.  It is not intended as a substitute for an official pre-flight weather briefing.

14:15:35 UTC

VTUW METAR
Nakhon Phanom Airport
Thailand
Current

1 hour ago

VTUW 151300Z 00000KT 9999 SCT045 29/26 Q1007 NOSIG
Observed
Sep-15 @ 13:00 UTC
Visibility
10,000+ meters
Flight Rules
VFR
Cloud Levels
  • Scattered at 4,500' AGL
Temperature
29°C / 84°F
Dewpoint
26°C / 79°F
Heat Index
36°C / 96°F
Humidity
84%
Altimeter
29.73" Hg
Pressure
1006.92 hPa
Previous

2 hours ago

VTUW 151200Z 26003KT 9999 FEW045 29/26 Q1006 NOSIG
Observed
Sep-15 @ 12:00 UTC
Wind
  • 260° at 3 KTS
Visibility
10,000+ meters
Flight Rules
VFR
Cloud Levels
  • Few at 4,500' AGL
Temperature
29°C / 84°F
Dewpoint
26°C / 79°F
Heat Index
36°C / 96°F
Humidity
84%
Altimeter
29.7" Hg
Pressure
1005.92 hPa
Previous

3 hours ago

VTUW 151100Z VRB01KT 9999 FEW030 30/26 Q1006 NOSIG
Observed
Sep-15 @ 11:00 UTC
Wind
  • Variable at 1 KTS
Visibility
10,000+ meters
Flight Rules
VFR
Cloud Levels
  • Few at 3,000' AGL
Temperature
30°C / 86°F
Dewpoint
26°C / 79°F
Heat Index
37°C / 99°F
Humidity
79%
Altimeter
29.7" Hg
Pressure
1005.92 hPa